createdAt,value
2017-12-03T00:00:41.353Z,23.80
2017-12-03T00:01:41.214Z,26.00
2017-12-03T00:02:41.284Z,26.00
2017-12-03T00:03:41.246Z,26.00
2017-12-03T00:04:41.217Z,26.00
2017-12-03T00:05:41.281Z,26.00
2017-12-03T00:06:41.218Z,26.00
2017-12-03T00:07:41.260Z,26.00
2017-12-03T00:08:41.250Z,26.00
2017-12-03T00:09:41.250Z,26.00
2017-12-03T00:10:41.254Z,26.00
2017-12-03T00:11:41.261Z,21.70
2017-12-03T00:12:41.268Z,21.70
2017-12-03T00:13:41.353Z,21.70
2017-12-03T00:14:41.356Z,21.70
2017-12-03T00:15:41.281Z,21.70
2017-12-03T00:16:41.268Z,21.70
2017-12-03T00:17:41.356Z,21.70
2017-12-03T00:18:41.269Z,21.70
2017-12-03T00:19:41.364Z,21.70
2017-12-03T00:20:41.361Z,21.70
2017-12-03T00:21:41.363Z,21.70
2017-12-03T00:22:41.304Z,22.80
2017-12-03T00:23:41.303Z,22.80
2017-12-03T00:24:41.305Z,22.80
2017-12-03T00:25:41.357Z,22.80
2017-12-03T00:26:41.237Z,22.80
2017-12-03T00:27:41.240Z,22.80
2017-12-03T00:28:41.303Z,22.80
2017-12-03T00:29:41.264Z,22.80
2017-12-03T00:30:41.242Z,22.80
2017-12-03T00:31:41.413Z,22.80
2017-12-03T00:32:41.242Z,38.60
2017-12-03T00:33:41.327Z,38.60
2017-12-03T00:34:41.274Z,38.60
2017-12-03T00:35:41.356Z,38.60
2017-12-03T00:36:41.239Z,38.60
2017-12-03T00:37:41.282Z,38.60
2017-12-03T00:38:41.333Z,38.60
2017-12-03T00:39:41.277Z,38.60
2017-12-03T00:40:41.358Z,38.60
2017-12-03T00:41:41.275Z,38.60
2017-12-03T00:42:41.358Z,24.50
2017-12-03T00:43:41.383Z,24.50
2017-12-03T00:44:41.320Z,24.50
2017-12-03T00:45:41.383Z,24.50
2017-12-03T00:46:41.318Z,24.50
2017-12-03T00:47:41.385Z,24.50
2017-12-03T00:48:41.318Z,24.50
2017-12-03T00:49:41.360Z,24.50
2017-12-03T00:50:41.320Z,24.50
2017-12-03T00:51:41.320Z,24.50
2017-12-03T00:52:41.321Z,23.20
2017-12-03T00:53:41.364Z,23.20
2017-12-03T00:54:41.319Z,23.20
2017-12-03T00:55:41.390Z,23.20
2017-12-03T00:56:41.323Z,23.20
2017-12-03T00:57:41.389Z,23.20
2017-12-03T00:58:41.323Z,23.20
2017-12-03T00:59:41.390Z,23.20
2017-12-03T01:00:41.390Z,23.20
2017-12-03T01:01:41.336Z,23.20
2017-12-03T01:02:41.358Z,25.80
2017-12-03T01:03:41.327Z,25.80
2017-12-03T01:04:41.344Z,25.80
2017-12-03T01:05:41.403Z,25.80
2017-12-03T01:06:41.333Z,25.80
2017-12-03T01:07:41.330Z,25.80
2017-12-03T01:08:41.394Z,25.80
2017-12-03T01:09:41.344Z,25.80
2017-12-03T01:10:41.393Z,25.80
2017-12-03T01:11:41.333Z,25.80
2017-12-03T01:12:41.344Z,21.99
2017-12-03T01:13:41.295Z,21.99
2017-12-03T01:14:41.250Z,21.99
2017-12-03T01:15:41.299Z,21.99
2017-12-03T01:16:41.297Z,21.99
2017-12-03T01:17:41.251Z,21.99
2017-12-03T01:18:41.345Z,21.99
2017-12-03T01:19:41.298Z,21.99
2017-12-03T01:20:41.299Z,21.99
2017-12-03T01:21:41.302Z,21.99
2017-12-03T01:22:41.274Z,22.60
2017-12-03T01:23:41.309Z,22.60
2017-12-03T01:24:41.307Z,22.60
2017-12-03T01:25:41.394Z,22.60
2017-12-03T01:26:41.459Z,22.60
2017-12-03T01:27:41.308Z,22.60
2017-12-03T01:28:41.396Z,22.60
2017-12-03T01:29:41.400Z,22.60
2017-12-03T01:30:41.309Z,22.60
2017-12-03T01:31:41.280Z,22.60
2017-12-03T01:32:41.303Z,22.99
2017-12-03T01:33:41.306Z,22.99
2017-12-03T01:34:41.300Z,22.99
2017-12-03T01:35:41.345Z,22.99
2017-12-03T01:36:41.370Z,22.99
2017-12-03T01:37:41.368Z,22.99
2017-12-03T01:38:41.309Z,22.99
2017-12-03T01:39:41.404Z,22.99
2017-12-03T01:40:41.302Z,22.99
2017-12-03T01:41:41.395Z,22.99
2017-12-03T01:42:41.415Z,21.60
2017-12-03T01:43:41.406Z,21.60
2017-12-03T01:44:41.354Z,21.60
2017-12-03T01:45:41.415Z,21.60
2017-12-03T01:46:41.353Z,21.60
2017-12-03T01:47:41.352Z,21.60
2017-12-03T01:48:41.418Z,21.60
2017-12-03T01:49:41.353Z,21.60
2017-12-03T01:50:41.350Z,21.60
2017-12-03T01:51:41.421Z,21.60
2017-12-03T01:52:41.273Z,24.00
2017-12-03T01:53:41.370Z,24.00
2017-12-03T01:54:41.368Z,24.00
2017-12-03T01:55:41.372Z,24.00
2017-12-03T01:56:41.277Z,24.00
2017-12-03T01:57:41.377Z,24.00
2017-12-03T01:58:41.276Z,24.00
2017-12-03T01:59:41.327Z,24.00
2017-12-03T02:00:41.338Z,24.00
2017-12-03T02:01:41.343Z,24.00
2017-12-03T02:02:41.352Z,20.30
2017-12-03T02:03:41.407Z,20.30
2017-12-03T02:04:41.294Z,20.30
2017-12-03T02:05:41.412Z,20.30
2017-12-03T02:06:41.385Z,20.30
2017-12-03T02:07:41.380Z,20.30
2017-12-03T02:08:41.320Z,20.30
2017-12-03T02:09:41.384Z,20.30
2017-12-03T02:10:41.407Z,20.30
2017-12-03T02:11:41.356Z,20.30
2017-12-03T02:12:41.371Z,21.50
2017-12-03T02:13:41.367Z,21.50
2017-12-03T02:14:41.433Z,21.50
2017-12-03T02:15:41.370Z,21.50
2017-12-03T02:16:41.368Z,21.50
2017-12-03T02:17:41.439Z,21.50
2017-12-03T02:18:41.374Z,21.50
2017-12-03T02:19:41.371Z,21.50
2017-12-03T02:20:41.436Z,21.50
2017-12-03T02:21:41.440Z,21.50
2017-12-03T02:22:41.423Z,26.30
2017-12-03T02:23:41.435Z,26.30
2017-12-03T02:24:41.340Z,26.30
2017-12-03T02:25:41.363Z,26.30
2017-12-03T02:26:41.429Z,26.30
2017-12-03T02:27:41.346Z,26.30
2017-12-03T02:28:41.364Z,26.30
2017-12-03T02:29:41.347Z,26.30
2017-12-03T02:30:41.383Z,26.30
2017-12-03T02:31:41.315Z,26.30
2017-12-03T02:32:41.379Z,22.80
2017-12-03T02:33:41.446Z,22.80
2017-12-03T02:34:41.382Z,22.80
2017-12-03T02:35:41.448Z,22.80
2017-12-03T02:36:41.383Z,22.80
2017-12-03T02:37:41.390Z,22.80
2017-12-03T02:38:41.383Z,22.80
2017-12-03T02:39:41.446Z,22.80
2017-12-03T02:40:41.392Z,22.80
2017-12-03T02:41:41.453Z,22.80
2017-12-03T02:42:41.388Z,21.20
2017-12-03T02:43:41.502Z,21.20
2017-12-03T02:44:41.388Z,21.20
2017-12-03T02:45:41.455Z,21.20
2017-12-03T02:46:41.453Z,21.20
2017-12-03T02:47:41.392Z,21.20
2017-12-03T02:48:41.458Z,21.20
2017-12-03T02:49:41.456Z,21.20
2017-12-03T02:50:41.414Z,21.20
2017-12-03T02:51:41.391Z,21.20
2017-12-03T02:52:41.456Z,20.20
2017-12-03T02:53:41.395Z,20.20
2017-12-03T02:54:41.463Z,20.20
2017-12-03T02:55:41.392Z,20.20
2017-12-03T02:56:41.466Z,20.20
2017-12-03T02:57:41.393Z,20.20
2017-12-03T02:58:41.457Z,20.20
2017-12-03T02:59:41.393Z,20.20
2017-12-03T03:00:41.470Z,20.20
2017-12-03T03:01:41.477Z,20.20
2017-12-03T03:02:41.397Z,24.50
2017-12-03T03:03:41.351Z,24.50
2017-12-03T03:04:41.353Z,24.50
2017-12-03T03:05:41.351Z,24.50
2017-12-03T03:06:41.416Z,24.50
2017-12-03T03:07:41.356Z,24.50
2017-12-03T03:08:41.331Z,24.50
2017-12-03T03:09:41.446Z,24.50
2017-12-03T03:10:41.423Z,24.50
2017-12-03T03:11:41.327Z,24.50
2017-12-03T03:12:41.409Z,23.20
2017-12-03T03:13:41.467Z,23.20
2017-12-03T03:14:41.405Z,23.20
2017-12-03T03:15:41.467Z,23.20
2017-12-03T03:16:41.403Z,23.20
2017-12-03T03:17:41.488Z,23.20
2017-12-03T03:18:41.441Z,23.20
2017-12-03T03:19:41.410Z,23.20
2017-12-03T03:20:41.407Z,23.20
2017-12-03T03:21:41.475Z,23.20
2017-12-03T03:22:41.474Z,24.10
2017-12-03T03:23:41.411Z,24.10
2017-12-03T03:24:41.475Z,24.10
2017-12-03T03:25:41.411Z,24.10
2017-12-03T03:26:41.413Z,24.10
2017-12-03T03:27:41.479Z,24.10
2017-12-03T03:28:41.410Z,24.10
2017-12-03T03:29:41.478Z,24.10
2017-12-03T03:30:41.417Z,24.10
2017-12-03T03:31:41.481Z,24.10
2017-12-03T03:32:41.409Z,26.00
2017-12-03T03:33:41.418Z,26.00
2017-12-03T03:34:41.422Z,26.00
2017-12-03T03:35:41.358Z,26.00
2017-12-03T03:36:41.341Z,26.00
2017-12-03T03:37:41.421Z,26.00
2017-12-03T03:38:41.388Z,26.00
2017-12-03T03:39:41.403Z,26.00
2017-12-03T03:40:41.358Z,26.00
2017-12-03T03:41:41.306Z,26.00
2017-12-03T03:42:41.378Z,24.80
2017-12-03T03:43:41.466Z,24.80
2017-12-03T03:44:41.378Z,24.80
2017-12-03T03:45:41.446Z,24.80
2017-12-03T03:46:41.387Z,24.80
2017-12-03T03:47:41.436Z,24.80
2017-12-03T03:48:41.384Z,24.80
2017-12-03T03:49:41.470Z,24.80
2017-12-03T03:50:41.470Z,24.80
2017-12-03T03:51:41.385Z,24.80
2017-12-03T03:52:41.435Z,23.80
2017-12-03T03:53:41.492Z,23.80
2017-12-03T03:54:41.431Z,23.80
2017-12-03T03:55:41.506Z,23.80
2017-12-03T03:56:41.435Z,23.80
2017-12-03T03:57:41.534Z,23.80
2017-12-03T03:58:41.431Z,23.80
2017-12-03T03:59:41.496Z,23.80
2017-12-03T04:00:41.438Z,23.80
2017-12-03T04:01:41.498Z,23.80
2017-12-03T04:02:41.406Z,23.40
2017-12-03T04:03:41.400Z,23.40
2017-12-03T04:04:41.489Z,23.40
2017-12-03T04:05:41.439Z,23.40
2017-12-03T04:06:41.491Z,23.40
2017-12-03T04:07:41.399Z,23.40
2017-12-03T04:08:41.500Z,23.40
2017-12-03T04:09:41.493Z,23.40
2017-12-03T04:10:41.500Z,23.40
2017-12-03T04:11:41.442Z,23.40
2017-12-03T04:12:41.505Z,22.60
2017-12-03T04:13:41.440Z,22.60
2017-12-03T04:14:41.440Z,22.60
2017-12-03T04:15:41.442Z,22.60
2017-12-03T04:16:41.508Z,22.60
2017-12-03T04:17:41.444Z,22.60
2017-12-03T04:18:41.506Z,22.60
2017-12-03T04:19:41.443Z,22.60
2017-12-03T04:20:41.509Z,22.60
2017-12-03T04:21:41.511Z,22.60
2017-12-03T04:22:41.444Z,23.30
2017-12-03T04:23:41.513Z,23.30
2017-12-03T04:24:41.444Z,23.30
2017-12-03T04:25:41.510Z,23.30
2017-12-03T04:26:41.513Z,23.30
2017-12-03T04:27:41.447Z,23.30
2017-12-03T04:28:41.513Z,23.30
2017-12-03T04:29:41.452Z,23.30
2017-12-03T04:30:41.396Z,23.30
2017-12-03T04:31:41.453Z,23.30
2017-12-03T04:32:41.520Z,26.20
2017-12-03T04:33:41.452Z,26.20
2017-12-03T04:34:41.453Z,26.20
2017-12-03T04:35:41.450Z,26.20
2017-12-03T04:36:41.520Z,26.20
2017-12-03T04:37:41.456Z,26.20
2017-12-03T04:38:41.517Z,26.20
2017-12-03T04:39:41.456Z,26.20
2017-12-03T04:40:41.523Z,26.20
2017-12-03T04:41:41.521Z,26.20
2017-12-03T04:42:41.424Z,22.80
2017-12-03T04:43:41.389Z,22.80
2017-12-03T04:44:41.477Z,22.80
2017-12-03T04:45:41.429Z,22.80
2017-12-03T04:46:41.399Z,22.80
2017-12-03T04:47:41.517Z,22.80
2017-12-03T04:48:41.520Z,22.80
2017-12-03T04:49:41.587Z,22.80
2017-12-03T04:50:41.518Z,22.80
2017-12-03T04:51:41.521Z,22.80
2017-12-03T04:52:41.435Z,17.40
2017-12-03T04:53:41.429Z,17.40
2017-12-03T04:54:41.435Z,17.40
2017-12-03T04:55:41.454Z,17.40
2017-12-03T04:56:41.450Z,17.40
2017-12-03T04:57:41.433Z,17.40
2017-12-03T04:58:41.439Z,17.40
2017-12-03T04:59:41.522Z,17.40
2017-12-03T05:00:41.489Z,17.40
2017-12-03T05:01:41.519Z,17.40
2017-12-03T05:02:41.468Z,24.40
2017-12-03T05:03:41.539Z,24.40
2017-12-03T05:04:41.471Z,24.40
2017-12-03T05:05:41.537Z,24.40
2017-12-03T05:06:41.471Z,24.40
2017-12-03T05:07:41.536Z,24.40
2017-12-03T05:08:41.472Z,24.40
2017-12-03T05:09:41.537Z,24.40
2017-12-03T05:10:41.541Z,24.40
2017-12-03T05:11:41.473Z,24.40
2017-12-03T05:12:41.435Z,22.80
2017-12-03T05:13:41.500Z,22.80
2017-12-03T05:14:41.522Z,22.80
2017-12-03T05:15:41.520Z,22.80
2017-12-03T05:16:41.480Z,22.80
2017-12-03T05:17:41.530Z,22.80
2017-12-03T05:18:41.416Z,22.80
2017-12-03T05:19:41.476Z,22.80
2017-12-03T05:20:41.412Z,22.80
2017-12-03T05:21:41.410Z,22.80
2017-12-03T05:22:41.545Z,18.40
2017-12-03T05:23:41.485Z,18.40
2017-12-03T05:24:41.548Z,18.40
2017-12-03T05:25:41.480Z,18.40
2017-12-03T05:26:41.595Z,18.40
2017-12-03T05:27:41.483Z,18.40
2017-12-03T05:28:41.546Z,18.40
2017-12-03T05:29:41.490Z,18.40
2017-12-03T05:30:41.552Z,18.40
2017-12-03T05:31:41.492Z,18.40
2017-12-03T05:32:41.408Z,19.00
2017-12-03T05:33:41.456Z,19.00
2017-12-03T05:34:41.426Z,19.00
2017-12-03T05:35:41.471Z,19.00
2017-12-03T05:36:41.411Z,19.00
2017-12-03T05:37:41.475Z,19.00
2017-12-03T05:38:41.407Z,19.00
2017-12-03T05:39:41.505Z,19.00
2017-12-03T05:40:41.510Z,19.00
2017-12-03T05:41:41.414Z,19.00
2017-12-03T05:42:41.582Z,18.20
2017-12-03T05:43:41.646Z,18.20
2017-12-03T05:44:41.493Z,18.20
2017-12-03T05:45:41.560Z,18.20
2017-12-03T05:46:41.493Z,18.20
2017-12-03T05:47:41.578Z,18.20
2017-12-03T05:48:41.497Z,18.20
2017-12-03T05:49:41.496Z,18.20
2017-12-03T05:50:41.499Z,18.20
2017-12-03T05:51:41.563Z,18.20
2017-12-03T05:52:41.502Z,20.60
2017-12-03T05:53:41.564Z,20.60
2017-12-03T05:54:41.562Z,20.60
2017-12-03T05:55:41.500Z,20.60
2017-12-03T05:56:41.564Z,20.60
2017-12-03T05:57:41.567Z,20.60
2017-12-03T05:58:41.559Z,20.60
2017-12-03T05:59:41.498Z,20.60
2017-12-03T06:00:41.500Z,20.60
2017-12-03T06:01:41.571Z,20.60
2017-12-03T06:02:41.477Z,19.90
2017-12-03T06:03:41.473Z,19.90
2017-12-03T06:04:41.520Z,19.90
2017-12-03T06:05:41.427Z,19.90
2017-12-03T06:06:41.427Z,19.90
2017-12-03T06:07:41.475Z,19.90
2017-12-03T06:08:41.592Z,19.90
2017-12-03T06:09:41.528Z,19.90
2017-12-03T06:10:41.526Z,19.90
2017-12-03T06:11:41.430Z,19.90
2017-12-03T06:12:41.506Z,20.60
2017-12-03T06:13:41.462Z,20.60
2017-12-03T06:14:41.520Z,20.60
2017-12-03T06:15:41.566Z,20.60
2017-12-03T06:16:41.570Z,20.60
2017-12-03T06:17:41.580Z,20.60
2017-12-03T06:18:41.535Z,20.60
2017-12-03T06:19:41.550Z,20.60
2017-12-03T06:20:41.482Z,20.60
2017-12-03T06:21:41.596Z,20.60
2017-12-03T06:22:41.452Z,21.50
2017-12-03T06:23:41.566Z,21.50
2017-12-03T06:24:41.491Z,21.50
2017-12-03T06:25:41.571Z,21.50
2017-12-03T06:26:41.570Z,21.50
2017-12-03T06:27:41.573Z,21.50
2017-12-03T06:28:41.541Z,21.50
2017-12-03T06:29:41.542Z,21.50
2017-12-03T06:30:41.581Z,21.50
2017-12-03T06:31:41.452Z,21.50
2017-12-03T06:32:41.521Z,18.60
2017-12-03T06:33:41.637Z,18.60
2017-12-03T06:34:41.586Z,18.60
2017-12-03T06:35:41.523Z,18.60
2017-12-03T06:36:41.591Z,18.60
2017-12-03T06:37:41.590Z,18.60
2017-12-03T06:38:41.591Z,18.60
2017-12-03T06:39:41.527Z,18.60
2017-12-03T06:40:41.590Z,18.60
2017-12-03T06:41:41.575Z,18.60
2017-12-03T06:42:41.540Z,20.50
2017-12-03T06:43:41.442Z,20.50
2017-12-03T06:44:41.446Z,20.50
2017-12-03T06:45:41.449Z,20.50
2017-12-03T06:46:41.495Z,20.50
2017-12-03T06:47:41.497Z,20.50
2017-12-03T06:48:41.541Z,20.50
2017-12-03T06:49:41.450Z,20.50
2017-12-03T06:50:41.506Z,20.50
2017-12-03T06:51:41.543Z,20.50
2017-12-03T06:52:41.589Z,19.30
2017-12-03T06:53:41.527Z,19.30
2017-12-03T06:54:41.475Z,19.30
2017-12-03T06:55:41.587Z,19.30
2017-12-03T06:56:41.521Z,19.30
2017-12-03T06:57:41.473Z,19.30
2017-12-03T06:58:41.598Z,19.30
2017-12-03T06:59:41.509Z,19.30
2017-12-03T07:00:41.594Z,19.30
2017-12-03T07:01:41.596Z,19.30
2017-12-03T07:02:41.553Z,16.90
2017-12-03T07:03:41.609Z,16.90
2017-12-03T07:04:41.543Z,16.90
2017-12-03T07:05:41.541Z,16.90
2017-12-03T07:06:41.541Z,16.90
2017-12-03T07:07:41.541Z,16.90
2017-12-03T07:08:41.620Z,16.90
2017-12-03T07:09:41.614Z,16.90
2017-12-03T07:10:41.545Z,16.90
2017-12-03T07:11:41.613Z,16.90
2017-12-03T07:12:41.618Z,16.90
2017-12-03T07:13:41.519Z,16.80
2017-12-03T07:14:41.499Z,16.80
2017-12-03T07:15:41.609Z,16.80
2017-12-03T07:16:41.518Z,16.80
2017-12-03T07:17:41.486Z,16.80
2017-12-03T07:18:41.521Z,16.80
2017-12-03T07:19:41.487Z,16.80
2017-12-03T07:20:41.605Z,16.80
2017-12-03T07:21:41.484Z,16.80
2017-12-03T07:22:41.576Z,16.80
2017-12-03T07:23:41.615Z,22.20
2017-12-03T07:24:41.618Z,22.20
2017-12-03T07:25:41.513Z,22.20
2017-12-03T07:26:41.554Z,22.20
2017-12-03T07:27:41.553Z,22.20
2017-12-03T07:28:41.626Z,22.20
2017-12-03T07:29:41.557Z,22.20
2017-12-03T07:30:41.626Z,22.20
2017-12-03T07:31:41.556Z,22.20
2017-12-03T07:32:41.623Z,22.20
2017-12-03T07:33:41.555Z,18.60
2017-12-03T07:34:41.624Z,18.60
2017-12-03T07:35:41.559Z,18.60
2017-12-03T07:36:41.644Z,18.60
2017-12-03T07:37:41.558Z,18.60
2017-12-03T07:38:41.625Z,18.60
2017-12-03T07:39:41.568Z,18.60
2017-12-03T07:40:41.595Z,18.60
2017-12-03T07:41:41.633Z,18.60
2017-12-03T07:42:41.521Z,18.60
2017-12-03T07:43:41.605Z,15.60
2017-12-03T07:44:41.564Z,15.60
2017-12-03T07:45:41.630Z,15.60
2017-12-03T07:46:41.566Z,15.60
2017-12-03T07:47:41.566Z,15.60
2017-12-03T07:48:41.635Z,15.60
2017-12-03T07:49:41.569Z,15.60
2017-12-03T07:50:41.632Z,15.60
2017-12-03T07:51:41.571Z,15.60
2017-12-03T07:52:41.631Z,15.60
2017-12-03T07:53:41.570Z,15.40
2017-12-03T07:54:41.529Z,15.40
2017-12-03T07:55:41.637Z,15.40
2017-12-03T07:56:41.566Z,15.40
2017-12-03T07:57:41.568Z,15.40
2017-12-03T07:58:41.634Z,15.40
2017-12-03T07:59:41.636Z,15.40
2017-12-03T08:00:41.654Z,15.40
2017-12-03T08:01:41.572Z,15.40
2017-12-03T08:02:41.640Z,15.40
2017-12-03T08:03:41.551Z,19.50
2017-12-03T08:04:41.536Z,19.50
2017-12-03T08:05:41.566Z,19.50
2017-12-03T08:06:41.624Z,19.50
2017-12-03T08:07:41.564Z,19.50
2017-12-03T08:08:41.534Z,19.50
2017-12-03T08:09:41.624Z,19.50
2017-12-03T08:10:41.513Z,19.50
2017-12-03T08:11:41.630Z,19.50
2017-12-03T08:12:41.622Z,19.50
2017-12-03T08:13:41.633Z,17.20
2017-12-03T08:14:41.576Z,17.20
2017-12-03T08:15:41.632Z,17.20
2017-12-03T08:16:41.640Z,17.20
2017-12-03T08:17:41.515Z,17.20
2017-12-03T08:18:41.666Z,17.20
2017-12-03T08:19:41.517Z,17.20
2017-12-03T08:20:41.639Z,17.20
2017-12-03T08:21:41.622Z,17.20
2017-12-03T08:22:41.639Z,17.20
2017-12-03T08:23:41.655Z,18.20
2017-12-03T08:24:41.585Z,18.20
2017-12-03T08:25:41.660Z,18.20
2017-12-03T08:26:41.653Z,18.20
2017-12-03T08:27:41.653Z,18.20
2017-12-03T08:28:41.658Z,18.20
2017-12-03T08:29:41.719Z,18.20
2017-12-03T08:30:41.655Z,18.20
2017-12-03T08:31:41.592Z,18.20
2017-12-03T08:32:41.657Z,18.20
2017-12-03T08:33:41.596Z,19.80
2017-12-03T08:34:41.659Z,19.80
2017-12-03T08:35:41.596Z,19.80
2017-12-03T08:36:41.546Z,19.80
2017-12-03T08:37:41.593Z,19.80
2017-12-03T08:38:41.596Z,19.80
2017-12-03T08:39:41.596Z,19.80
2017-12-03T08:40:41.663Z,19.80
2017-12-03T08:41:41.604Z,19.80
2017-12-03T08:42:41.685Z,19.80
2017-12-03T08:43:41.595Z,19.30
2017-12-03T08:44:41.666Z,19.30
2017-12-03T08:45:41.665Z,19.30
2017-12-03T08:46:41.632Z,19.30
2017-12-03T08:47:41.556Z,19.30
2017-12-03T08:48:41.670Z,19.30
2017-12-03T08:49:41.599Z,19.30
2017-12-03T08:50:41.612Z,19.30
2017-12-03T08:51:41.672Z,19.30
2017-12-03T08:52:41.695Z,19.30
2017-12-03T08:53:41.554Z,16.80
2017-12-03T08:54:41.614Z,16.80
2017-12-03T08:55:41.551Z,16.80
2017-12-03T08:56:41.576Z,16.80
2017-12-03T08:57:41.627Z,16.80
2017-12-03T08:58:41.657Z,16.80
2017-12-03T08:59:41.605Z,16.80
2017-12-03T09:00:41.670Z,16.80
2017-12-03T09:01:41.658Z,16.80
2017-12-03T09:02:41.729Z,16.80
2017-12-03T09:03:41.676Z,18.90
2017-12-03T09:04:41.691Z,18.90
2017-12-03T09:05:41.611Z,18.90
2017-12-03T09:06:41.687Z,18.90
2017-12-03T09:07:41.681Z,18.90
2017-12-03T09:08:41.614Z,18.90
2017-12-03T09:09:41.688Z,18.90
2017-12-03T09:10:41.618Z,18.90
2017-12-03T09:11:41.680Z,18.90
2017-12-03T09:12:41.688Z,18.90
2017-12-03T09:13:41.664Z,17.20
2017-12-03T09:14:41.668Z,17.20
2017-12-03T09:15:41.657Z,17.20
2017-12-03T09:16:41.610Z,17.20
2017-12-03T09:17:41.640Z,17.20
2017-12-03T09:18:41.622Z,17.20
2017-12-03T09:19:41.648Z,17.20
2017-12-03T09:20:41.668Z,17.20
2017-12-03T09:21:41.561Z,17.20
2017-12-03T09:22:41.588Z,17.20
2017-12-03T09:23:41.622Z,19.20
2017-12-03T09:24:41.628Z,19.20
2017-12-03T09:25:41.689Z,19.20
2017-12-03T09:26:41.624Z,19.20
2017-12-03T09:27:41.693Z,19.20
2017-12-03T09:28:41.655Z,19.20
2017-12-03T09:29:41.691Z,19.20
2017-12-03T09:30:41.633Z,19.20
2017-12-03T09:31:41.696Z,19.20
2017-12-03T09:32:41.696Z,19.20
2017-12-03T09:33:41.626Z,18.70
2017-12-03T09:34:41.700Z,18.70
2017-12-03T09:35:41.657Z,18.70
2017-12-03T09:36:41.630Z,18.70
2017-12-03T09:37:41.695Z,18.70
2017-12-03T09:38:41.627Z,18.70
2017-12-03T09:39:41.717Z,18.70
2017-12-03T09:40:41.703Z,18.70
2017-12-03T09:41:41.634Z,18.70
2017-12-03T09:42:41.699Z,18.70
2017-12-03T09:43:41.634Z,19.30
2017-12-03T09:44:41.705Z,19.30
2017-12-03T09:45:41.656Z,19.30
2017-12-03T09:46:41.640Z,19.30
2017-12-03T09:47:41.703Z,19.30
2017-12-03T09:48:41.640Z,19.30
2017-12-03T09:49:41.636Z,19.30
2017-12-03T09:50:41.710Z,19.30
2017-12-03T09:51:41.637Z,19.30
2017-12-03T09:52:41.704Z,19.30
2017-12-03T09:53:41.612Z,20.99
2017-12-03T09:54:41.656Z,20.99
2017-12-03T09:55:41.654Z,20.99
2017-12-03T09:56:41.557Z,20.99
2017-12-03T09:57:41.618Z,20.99
2017-12-03T09:58:41.561Z,20.99
2017-12-03T09:59:41.613Z,20.99
2017-12-03T10:00:41.564Z,20.99
2017-12-03T10:01:41.565Z,20.99
2017-12-03T10:02:41.611Z,20.99
2017-12-03T10:03:41.644Z,16.60
2017-12-03T10:04:41.649Z,16.60
2017-12-03T10:05:41.731Z,16.60
2017-12-03T10:06:41.650Z,16.60
2017-12-03T10:07:41.712Z,16.60
2017-12-03T10:08:41.648Z,16.60
2017-12-03T10:09:41.643Z,16.60
2017-12-03T10:10:41.719Z,16.60
2017-12-03T10:11:41.649Z,16.60
2017-12-03T10:12:41.654Z,16.60
2017-12-03T10:13:41.653Z,19.50
2017-12-03T10:14:41.740Z,19.50
2017-12-03T10:15:41.653Z,19.50
2017-12-03T10:16:41.724Z,19.50
2017-12-03T10:17:41.720Z,19.50
2017-12-03T10:18:41.655Z,19.50
2017-12-03T10:19:41.658Z,19.50
2017-12-03T10:20:41.720Z,19.50
2017-12-03T10:21:41.654Z,19.50
2017-12-03T10:22:41.655Z,19.50
2017-12-03T10:23:41.724Z,16.30
2017-12-03T10:24:41.725Z,16.30
2017-12-03T10:25:41.730Z,16.30
2017-12-03T10:26:41.661Z,16.30
2017-12-03T10:27:41.683Z,16.30
2017-12-03T10:28:41.726Z,16.30
2017-12-03T10:29:41.731Z,16.30
2017-12-03T10:30:41.730Z,16.30
2017-12-03T10:31:41.730Z,16.30
2017-12-03T10:32:41.665Z,16.30
2017-12-03T10:33:41.719Z,20.70
2017-12-03T10:34:41.685Z,20.70
2017-12-03T10:35:41.722Z,20.70
2017-12-03T10:36:41.719Z,20.70
2017-12-03T10:37:41.717Z,20.70
2017-12-03T10:38:41.700Z,20.70
2017-12-03T10:39:41.723Z,20.70
2017-12-03T10:40:41.599Z,20.70
2017-12-03T10:41:41.605Z,20.70
2017-12-03T10:42:41.710Z,20.70
2017-12-03T10:43:41.737Z,19.50
2017-12-03T10:44:41.675Z,19.50
2017-12-03T10:45:41.738Z,19.50
2017-12-03T10:46:41.691Z,19.50
2017-12-03T10:47:41.741Z,19.50
2017-12-03T10:48:41.673Z,19.50
2017-12-03T10:49:41.739Z,19.50
2017-12-03T10:50:41.674Z,19.50
2017-12-03T10:51:41.741Z,19.50
2017-12-03T10:52:41.673Z,19.50
2017-12-03T10:53:41.744Z,19.80
2017-12-03T10:54:41.700Z,19.80
2017-12-03T10:55:41.677Z,19.80
2017-12-03T10:56:41.743Z,19.80
2017-12-03T10:57:41.748Z,19.80
2017-12-03T10:58:41.680Z,19.80
2017-12-03T10:59:41.745Z,19.80
2017-12-03T11:00:41.680Z,19.80
2017-12-03T11:01:41.748Z,19.80
2017-12-03T11:02:41.704Z,19.80
2017-12-03T11:03:41.564Z,18.00
2017-12-03T11:04:41.672Z,18.00
2017-12-03T11:05:41.610Z,18.00
2017-12-03T11:06:41.684Z,18.00
2017-12-03T11:07:41.653Z,18.00
2017-12-03T11:08:41.567Z,18.00
2017-12-03T11:09:41.630Z,18.00
2017-12-03T11:10:41.684Z,18.00
2017-12-03T11:11:41.632Z,18.00
2017-12-03T11:12:41.631Z,18.00
2017-12-03T11:13:41.740Z,17.50
2017-12-03T11:14:41.708Z,17.50
2017-12-03T11:15:41.624Z,17.50
2017-12-03T11:16:41.745Z,17.50
2017-12-03T11:17:41.705Z,17.50
2017-12-03T11:18:41.728Z,17.50
2017-12-03T11:19:41.745Z,17.50
2017-12-03T11:20:41.661Z,17.50
2017-12-03T11:21:41.643Z,17.50
2017-12-03T11:22:41.721Z,17.50
2017-12-03T11:23:41.796Z,17.90
2017-12-03T11:24:41.701Z,17.90
2017-12-03T11:25:41.694Z,17.90
2017-12-03T11:26:41.760Z,17.90
2017-12-03T11:27:41.696Z,17.90
2017-12-03T11:28:41.764Z,17.90
2017-12-03T11:29:41.697Z,17.90
2017-12-03T11:30:41.767Z,17.90
2017-12-03T11:31:41.698Z,17.90
2017-12-03T11:32:41.705Z,17.90
2017-12-03T11:33:41.772Z,16.50
2017-12-03T11:34:41.702Z,16.50
2017-12-03T11:35:41.770Z,16.50
2017-12-03T11:36:41.705Z,16.50
2017-12-03T11:37:41.706Z,16.50
2017-12-03T11:38:41.774Z,16.50
2017-12-03T11:39:41.775Z,16.50
2017-12-03T11:40:41.706Z,16.50
2017-12-03T11:41:41.772Z,16.50
2017-12-03T11:42:41.726Z,16.50
2017-12-03T11:43:41.775Z,20.99
2017-12-03T11:44:41.709Z,20.99
2017-12-03T11:45:41.782Z,20.99
2017-12-03T11:46:41.709Z,20.99
2017-12-03T11:47:41.779Z,20.99
2017-12-03T11:48:41.777Z,20.99
2017-12-03T11:49:41.708Z,20.99
2017-12-03T11:50:41.775Z,20.99
2017-12-03T11:51:41.711Z,20.99
2017-12-03T11:52:41.715Z,20.99
2017-12-03T11:53:41.638Z,16.40
2017-12-03T11:54:41.674Z,16.40
2017-12-03T11:55:41.716Z,16.40
2017-12-03T11:56:41.704Z,16.40
2017-12-03T11:57:41.643Z,16.40
2017-12-03T11:58:41.748Z,16.40
2017-12-03T11:59:41.775Z,16.40
2017-12-03T12:00:41.654Z,16.40
2017-12-03T12:01:41.711Z,16.40
2017-12-03T12:02:41.738Z,16.40
2017-12-03T12:03:41.774Z,19.20
2017-12-03T12:04:41.773Z,19.20
2017-12-03T12:05:41.692Z,19.20
2017-12-03T12:06:41.674Z,19.20
2017-12-03T12:07:41.692Z,19.20
2017-12-03T12:08:41.754Z,19.20
2017-12-03T12:09:41.783Z,19.20
2017-12-03T12:10:41.778Z,19.20
2017-12-03T12:11:41.738Z,19.20
2017-12-03T12:12:41.792Z,19.20
2017-12-03T12:13:41.789Z,18.90
2017-12-03T12:14:41.725Z,18.90
2017-12-03T12:15:41.788Z,18.90
2017-12-03T12:16:41.794Z,18.90
2017-12-03T12:17:41.797Z,18.90
2017-12-03T12:18:41.723Z,18.90
2017-12-03T12:19:41.797Z,18.90
2017-12-03T12:20:41.797Z,18.90
2017-12-03T12:21:41.726Z,18.90
2017-12-03T12:22:41.796Z,18.90
2017-12-03T12:23:41.747Z,14.20
2017-12-03T12:24:41.794Z,14.20
2017-12-03T12:25:41.729Z,14.20
2017-12-03T12:26:41.798Z,14.20
2017-12-03T12:27:41.800Z,14.20
2017-12-03T12:28:41.798Z,14.20
2017-12-03T12:29:41.804Z,14.20
2017-12-03T12:30:41.739Z,14.20
2017-12-03T12:31:41.801Z,14.20
2017-12-03T12:32:41.736Z,14.20
2017-12-03T12:33:41.801Z,15.90
2017-12-03T12:34:41.805Z,15.90
2017-12-03T12:35:41.742Z,15.90
2017-12-03T12:36:41.803Z,15.90
2017-12-03T12:37:41.743Z,15.90
2017-12-03T12:38:41.808Z,15.90
2017-12-03T12:39:41.741Z,15.90
2017-12-03T12:40:41.842Z,15.90
2017-12-03T12:41:41.812Z,15.90
2017-12-03T12:42:41.745Z,15.90
2017-12-03T12:43:41.808Z,13.80
2017-12-03T12:44:41.740Z,13.80
2017-12-03T12:45:41.836Z,13.80
2017-12-03T12:46:41.743Z,13.80
2017-12-03T12:47:41.809Z,13.80
2017-12-03T12:48:41.744Z,13.80
2017-12-03T12:49:41.809Z,13.80
2017-12-03T12:50:41.810Z,13.80
2017-12-03T12:51:41.811Z,13.80
2017-12-03T12:52:41.750Z,13.80